createdAt,value
2022-09-28T00:01:08.862Z,12.54
2022-09-28T00:03:36.249Z,12.41
2022-09-28T00:06:06.046Z,12.61
2022-09-28T00:08:33.777Z,12.67
2022-09-28T00:11:01.172Z,12.28
2022-09-28T00:13:28.335Z,12.44
2022-09-28T00:16:02.014Z,12.43
2022-09-28T00:18:28.945Z,12.40
2022-09-28T00:21:17.633Z,12.47
2022-09-28T00:23:45.241Z,12.47
2022-09-28T00:26:12.058Z,12.53
2022-09-28T00:28:38.980Z,12.57
2022-09-28T00:31:08.171Z,12.64
2022-09-28T00:33:35.038Z,12.74
2022-09-28T00:36:01.990Z,12.61
2022-09-28T00:38:30.256Z,12.68
2022-09-28T00:40:57.301Z,12.64
2022-09-28T00:43:25.111Z,12.75
2022-09-28T00:46:06.462Z,12.72
2022-09-28T00:48:37.593Z,12.73
2022-09-28T00:51:12.100Z,12.72
2022-09-28T00:53:43.394Z,12.89
2022-09-28T00:56:15.682Z,12.88
2022-09-28T00:58:47.828Z,12.91
2022-09-28T01:01:14.933Z,12.96
2022-09-28T01:03:41.943Z,12.84
2022-09-28T01:06:09.822Z,12.96
2022-09-28T01:09:00.299Z,12.87
2022-09-28T01:11:27.823Z,13.20
2022-09-28T01:13:56.553Z,13.19
2022-09-28T01:19:57.693Z,13.42
2022-09-28T01:22:49.413Z,13.34
2022-09-28T01:25:36.456Z,13.50
2022-09-28T01:28:16.321Z,13.56
2022-09-28T01:30:52.891Z,13.51
2022-09-28T01:33:24.980Z,13.67
2022-09-28T01:36:34.700Z,13.85
2022-09-28T01:39:26.185Z,13.89
2022-09-28T01:42:01.394Z,13.90
2022-09-28T01:44:32.882Z,13.91
2022-09-28T01:47:01.901Z,14.00
2022-09-28T01:49:35.901Z,14.11
2022-09-28T01:52:25.935Z,14.12
2022-09-28T01:55:07.597Z,14.15
2022-09-28T01:57:42.509Z,14.19
2022-09-28T02:00:13.905Z,14.18
2022-09-28T02:03:24.418Z,14.27
2022-09-28T02:06:07.965Z,14.12
2022-09-28T02:08:41.006Z,14.08
2022-09-28T02:11:14.992Z,14.17
2022-09-28T02:14:04.810Z,14.07
2022-09-28T02:16:42.012Z,13.95
2022-09-28T02:19:22.388Z,13.88
2022-09-28T02:21:58.531Z,13.76
2022-09-28T02:24:34.332Z,13.86
2022-09-28T02:27:13.780Z,13.89
2022-09-28T02:29:41.300Z,13.84
2022-09-28T02:32:16.882Z,13.82
2022-09-28T02:34:44.332Z,13.80
2022-09-28T02:37:11.165Z,13.78
2022-09-28T02:39:40.505Z,13.68
2022-09-28T02:42:34.507Z,13.66
2022-09-28T02:45:54.635Z,13.75
2022-09-28T02:49:05.190Z,13.61
2022-09-28T02:51:42.866Z,13.69
2022-09-28T02:54:41.969Z,13.80
2022-09-28T02:57:46.725Z,13.72
2022-09-28T03:00:24.229Z,13.82
2022-09-28T03:03:17.677Z,13.77
2022-09-28T03:06:29.629Z,13.70
2022-09-28T03:09:24.827Z,13.81
2022-09-28T03:12:16.550Z,13.60
2022-09-28T03:14:43.856Z,13.68
2022-09-28T03:17:11.223Z,13.59
2022-09-28T03:19:38.346Z,13.49
2022-09-28T03:22:05.193Z,13.57
2022-09-28T03:24:32.077Z,13.52
2022-09-28T03:26:58.895Z,13.58
2022-09-28T03:29:25.842Z,13.57
2022-09-28T03:31:58.593Z,13.47
2022-09-28T03:34:25.423Z,13.44
2022-09-28T03:36:52.428Z,13.39
2022-09-28T03:39:19.403Z,13.41
2022-09-28T03:41:46.203Z,13.35
2022-09-28T03:44:13.043Z,13.30
2022-09-28T03:46:40.112Z,13.22
2022-09-28T03:49:10.300Z,13.40
2022-09-28T03:51:37.074Z,13.37
2022-09-28T03:54:09.992Z,13.39
2022-09-28T03:56:36.894Z,13.32
2022-09-28T03:59:04.183Z,13.13
2022-09-28T04:01:31.493Z,13.28
2022-09-28T04:03:58.387Z,13.28
2022-09-28T04:06:26.276Z,13.33
2022-09-28T04:08:53.429Z,13.44
2022-09-28T04:11:20.887Z,13.27
2022-09-28T04:13:50.506Z,13.35
2022-09-28T04:16:17.844Z,13.35
2022-09-28T04:18:53.528Z,13.35
2022-09-28T04:21:32.718Z,13.47
2022-09-28T04:24:08.984Z,13.47
2022-09-28T04:26:36.396Z,13.26
2022-09-28T04:29:06.630Z,13.27
2022-09-28T04:31:54.424Z,13.32
2022-09-28T04:34:31.905Z,13.29
2022-09-28T04:37:01.453Z,13.32
2022-09-28T04:39:28.496Z,13.29
2022-09-28T04:41:56.463Z,13.45
2022-09-28T04:44:23.337Z,13.27
2022-09-28T04:46:56.086Z,13.23
2022-09-28T04:49:28.965Z,13.26
2022-09-28T04:52:06.296Z,13.32
2022-09-28T04:54:34.619Z,13.30
2022-09-28T04:57:01.806Z,13.43
2022-09-28T04:59:28.695Z,13.35
2022-09-28T05:01:55.604Z,13.39
2022-09-28T05:04:45.374Z,13.32
2022-09-28T05:07:30.885Z,13.38
2022-09-28T05:10:00.719Z,13.28
2022-09-28T05:13:03.152Z,13.55
2022-09-28T05:15:30.032Z,13.36
2022-09-28T05:17:57.064Z,13.33
2022-09-28T05:20:41.232Z,13.33
2022-09-28T05:23:12.220Z,13.42
2022-09-28T05:25:40.494Z,13.41
2022-09-28T05:28:29.290Z,13.36
2022-09-28T05:31:16.478Z,13.55
2022-09-28T05:34:01.957Z,13.48
2022-09-28T05:36:28.939Z,13.52
2022-09-28T05:38:56.519Z,13.53
2022-09-28T05:41:23.518Z,13.55
2022-09-28T05:43:50.442Z,13.50
2022-09-28T05:46:18.558Z,13.43
2022-09-28T05:48:45.591Z,13.39
2022-09-28T05:51:12.542Z,13.37
2022-09-28T05:53:39.339Z,13.59
2022-09-28T05:56:32.744Z,13.40
2022-09-28T05:58:59.638Z,13.51
2022-09-28T06:01:29.461Z,13.61
2022-09-28T06:03:58.565Z,13.71
2022-09-28T06:06:25.820Z,13.73
2022-09-28T06:08:52.648Z,13.75
2022-09-28T06:11:54.699Z,13.88
2022-09-28T06:14:25.816Z,14.02
2022-09-28T06:17:03.452Z,13.85
2022-09-28T06:19:30.531Z,14.08
2022-09-28T06:22:06.297Z,14.01
2022-09-28T06:24:41.308Z,14.08
2022-09-28T06:27:08.335Z,14.31
2022-09-28T06:29:41.188Z,14.29
2022-09-28T06:32:08.067Z,14.25
2022-09-28T06:34:37.791Z,14.39
2022-09-28T06:37:04.653Z,14.33
2022-09-28T06:39:32.107Z,14.19
2022-09-28T06:41:59.095Z,14.37
2022-09-28T06:44:34.941Z,14.34
2022-09-28T06:47:22.087Z,14.35
2022-09-28T06:50:05.535Z,14.34
2022-09-28T06:52:55.530Z,14.42
2022-09-28T06:55:48.403Z,14.50
2022-09-28T06:58:18.437Z,14.53
2022-09-28T07:01:13.197Z,14.59
2022-09-28T07:03:46.398Z,14.57
2022-09-28T07:06:36.040Z,14.63
2022-09-28T07:09:32.346Z,14.66
2022-09-28T07:12:28.914Z,14.65
2022-09-28T07:15:04.495Z,14.59
2022-09-28T07:17:33.164Z,14.80
2022-09-28T07:20:13.895Z,14.65
2022-09-28T07:22:45.330Z,14.69
2022-09-28T07:25:18.142Z,14.69
2022-09-28T07:28:05.316Z,14.66
2022-09-28T07:30:57.458Z,14.70
2022-09-28T07:33:51.302Z,14.72
2022-09-28T07:36:29.842Z,14.88
2022-09-28T07:38:57.763Z,14.90
2022-09-28T07:41:26.210Z,14.80
2022-09-28T07:43:53.075Z,14.71
2022-09-28T07:46:19.942Z,14.59
2022-09-28T07:49:00.813Z,14.58
2022-09-28T07:51:34.124Z,14.66
2022-09-28T07:54:21.167Z,14.68
2022-09-28T07:57:09.489Z,14.74
2022-09-28T07:59:59.179Z,14.65
2022-09-28T08:02:41.142Z,14.62
2022-09-28T08:05:08.558Z,14.46
2022-09-28T08:07:35.391Z,14.49
2022-09-28T08:10:06.144Z,14.53
2022-09-28T08:13:02.135Z,14.56
2022-09-28T08:15:48.314Z,14.49
2022-09-28T08:18:38.993Z,14.49
2022-09-28T08:21:06.907Z,14.39
2022-09-28T08:23:33.668Z,14.41
2022-09-28T08:26:00.539Z,14.54
2022-09-28T08:28:27.379Z,14.51
2022-09-28T08:31:00.447Z,14.42
2022-09-28T08:33:59.729Z,14.48
2022-09-28T08:36:46.765Z,14.48
2022-09-28T08:39:34.066Z,14.54
2022-09-28T08:42:35.837Z,14.53
2022-09-28T08:45:26.590Z,14.63
2022-09-28T08:48:26.147Z,14.69
2022-09-28T08:51:35.367Z,14.70
2022-09-28T08:54:45.921Z,14.72
2022-09-28T08:57:32.171Z,14.94
2022-09-28T09:00:02.456Z,15.01
2022-09-28T09:02:36.412Z,14.86
2022-09-28T09:05:30.159Z,14.74
2022-09-28T09:08:19.657Z,14.99
2022-09-28T09:11:02.312Z,14.95
2022-09-28T09:14:09.483Z,15.12
2022-09-28T09:17:00.473Z,15.22
2022-09-28T09:20:17.224Z,15.38
2022-09-28T09:23:37.033Z,15.47
2022-09-28T09:26:18.917Z,15.34
2022-09-28T09:29:10.097Z,15.33
2022-09-28T09:32:03.533Z,15.31
2022-09-28T09:34:56.599Z,15.16
2022-09-28T09:38:26.843Z,15.37
2022-09-28T09:41:36.071Z,15.15
2022-09-28T09:44:46.589Z,15.12
2022-09-28T09:47:43.881Z,15.17
2022-09-28T09:50:31.816Z,15.19
2022-09-28T09:53:05.735Z,15.15
2022-09-28T09:56:03.732Z,15.28
2022-09-28T09:58:57.026Z,15.15
2022-09-28T10:01:36.026Z,15.26
2022-09-28T10:04:35.154Z,15.13
2022-09-28T10:07:45.834Z,15.37
2022-09-28T10:10:22.676Z,15.37
2022-09-28T10:12:53.597Z,15.50
2022-09-28T10:15:25.528Z,15.48
2022-09-28T10:18:10.560Z,15.44
2022-09-28T10:20:55.949Z,15.51
2022-09-28T10:24:15.277Z,15.63
2022-09-28T10:26:48.160Z,15.66
2022-09-28T10:29:20.187Z,15.67
2022-09-28T10:31:49.907Z,15.92
2022-09-28T10:34:29.037Z,15.88
2022-09-28T10:37:11.021Z,16.05
2022-09-28T10:39:59.105Z,16.33
2022-09-28T10:42:32.527Z,16.30
2022-09-28T10:45:23.186Z,16.38
2022-09-28T10:47:50.656Z,16.41
2022-09-28T10:50:39.924Z,16.24
2022-09-28T10:53:19.113Z,16.19
2022-09-28T10:56:07.070Z,16.01
2022-09-28T10:58:41.886Z,15.99
2022-09-28T11:01:21.361Z,15.99
2022-09-28T11:04:05.833Z,15.94
2022-09-28T11:06:37.413Z,16.16
2022-09-28T11:09:18.150Z,16.32
2022-09-28T11:11:45.519Z,16.38
2022-09-28T11:14:24.558Z,16.47
2022-09-28T11:17:14.904Z,16.44
2022-09-28T11:19:41.988Z,16.28
2022-09-28T11:22:20.973Z,16.46
2022-09-28T11:24:49.822Z,16.54
2022-09-28T11:27:25.214Z,16.53
2022-09-28T11:29:59.246Z,16.56
2022-09-28T11:32:51.156Z,16.52
2022-09-28T11:35:51.972Z,16.64
2022-09-28T11:38:32.628Z,16.68
2022-09-28T11:41:11.424Z,16.81
2022-09-28T11:43:44.408Z,16.92
2022-09-28T11:46:40.594Z,17.19
2022-09-28T11:49:40.409Z,17.17
2022-09-28T11:52:19.353Z,17.11
2022-09-28T11:55:02.056Z,17.15
2022-09-28T11:57:36.737Z,17.26
2022-09-28T12:00:21.812Z,17.15
2022-09-28T12:03:33.536Z,17.30
2022-09-28T12:06:23.907Z,17.29
2022-09-28T12:09:03.457Z,17.34
2022-09-28T12:12:22.932Z,17.27
2022-09-28T12:14:55.795Z,17.26
2022-09-28T12:17:46.992Z,17.50
2022-09-28T12:20:52.287Z,17.52
2022-09-28T12:23:33.110Z,17.32
2022-09-28T12:26:05.682Z,17.24
2022-09-28T12:28:45.085Z,17.24
2022-09-28T12:31:47.001Z,17.42
2022-09-28T12:34:13.869Z,17.35
2022-09-28T12:36:49.803Z,17.40
2022-09-28T12:39:56.524Z,17.41
2022-09-28T12:42:45.836Z,17.56
2022-09-28T12:45:38.444Z,17.49
2022-09-28T12:48:53.529Z,17.53
2022-09-28T12:51:49.481Z,17.59
2022-09-28T12:54:53.624Z,17.62
2022-09-28T12:57:58.619Z,17.57
2022-09-28T13:00:34.309Z,17.45
2022-09-28T13:03:40.925Z,17.54
2022-09-28T13:06:19.438Z,17.26
2022-09-28T13:08:55.415Z,17.33
2022-09-28T13:11:50.629Z,17.42
2022-09-28T13:14:48.275Z,17.33
2022-09-28T13:17:33.005Z,17.29
2022-09-28T13:20:09.113Z,17.32
2022-09-28T13:22:44.985Z,17.23
2022-09-28T13:25:16.008Z,17.25
2022-09-28T13:27:50.589Z,17.19
2022-09-28T13:30:18.093Z,17.20
2022-09-28T13:33:00.711Z,17.24
2022-09-28T13:35:28.278Z,17.18
2022-09-28T13:38:16.730Z,17.28
2022-09-28T13:41:05.220Z,17.22
2022-09-28T13:43:44.378Z,17.07
2022-09-28T13:50:25.182Z,17.33
2022-09-28T13:53:08.034Z,17.07
2022-09-28T13:55:34.802Z,17.02
2022-09-28T13:58:26.262Z,17.19
2022-09-28T14:01:23.399Z,17.30
2022-09-28T14:04:15.163Z,17.23
2022-09-28T14:07:03.639Z,17.23
2022-09-28T14:09:47.424Z,17.24
2022-09-28T14:12:59.001Z,17.29
2022-09-28T14:15:44.040Z,17.23
2022-09-28T14:18:37.597Z,17.24
2022-09-28T14:21:36.719Z,17.30
2022-09-28T14:24:19.192Z,17.31
2022-09-28T14:26:51.972Z,17.23
2022-09-28T14:29:39.317Z,17.31
2022-09-28T14:32:41.471Z,17.27
2022-09-28T14:35:23.436Z,17.31
2022-09-28T14:37:55.326Z,17.35
2022-09-28T14:40:22.460Z,17.27
2022-09-28T14:43:20.353Z,17.46
2022-09-28T14:45:47.513Z,17.36
2022-09-28T14:48:22.403Z,17.31
2022-09-28T14:50:49.653Z,17.40
2022-09-28T14:53:27.253Z,17.31
2022-09-28T14:55:57.916Z,17.33
2022-09-28T14:58:30.422Z,17.27
2022-09-28T15:01:09.580Z,17.31
2022-09-28T15:03:42.819Z,17.20
2022-09-28T15:06:14.937Z,17.20
2022-09-28T15:08:41.976Z,17.13
2022-09-28T15:11:27.307Z,17.18
2022-09-28T15:14:06.791Z,17.20
2022-09-28T15:16:33.878Z,17.16
2022-09-28T15:19:06.566Z,17.04
2022-09-28T15:21:39.877Z,17.04
2022-09-28T15:24:28.295Z,17.14
2022-09-28T15:26:55.649Z,17.00
2022-09-28T15:29:22.698Z,17.04
2022-09-28T15:31:54.362Z,17.06
2022-09-28T15:34:40.791Z,17.09
2022-09-28T15:37:07.857Z,16.90
2022-09-28T15:39:34.922Z,16.79
2022-09-28T15:42:02.174Z,16.70
2022-09-28T15:44:32.232Z,16.55
2022-09-28T15:47:10.281Z,16.81
2022-09-28T15:49:43.313Z,16.83
2022-09-28T15:52:44.201Z,16.84
2022-09-28T15:55:23.089Z,16.79
2022-09-28T15:57:51.219Z,16.87
2022-09-28T16:00:21.018Z,16.81
2022-09-28T16:03:06.813Z,16.81
2022-09-28T16:05:37.986Z,16.78
2022-09-28T16:08:06.027Z,16.70
2022-09-28T16:10:34.392Z,16.80
2022-09-28T16:13:14.258Z,16.83
2022-09-28T16:15:44.580Z,16.74
2022-09-28T16:18:14.137Z,16.74
2022-09-28T16:20:41.596Z,16.64
2022-09-28T16:23:17.492Z,16.67
2022-09-28T16:25:54.712Z,16.61
2022-09-28T16:28:44.624Z,16.64
2022-09-28T16:31:14.682Z,16.56
2022-09-28T16:33:58.356Z,16.60
2022-09-28T16:36:40.612Z,16.53
2022-09-28T16:39:33.549Z,16.63
2022-09-28T16:42:01.775Z,16.60
2022-09-28T16:44:28.898Z,16.60
2022-09-28T16:46:58.275Z,16.63
2022-09-28T16:49:25.881Z,16.60
2022-09-28T16:51:53.070Z,16.53
2022-09-28T16:54:22.912Z,16.52
2022-09-28T16:56:50.251Z,16.57
2022-09-28T16:59:17.260Z,16.70
2022-09-28T17:01:44.229Z,16.59
2022-09-28T17:04:14.366Z,16.57
2022-09-28T17:06:41.373Z,16.59
2022-09-28T17:09:12.542Z,16.61
2022-09-28T17:11:39.503Z,16.56
2022-09-28T17:14:17.800Z,16.55
2022-09-28T17:17:07.323Z,16.55
2022-09-28T17:19:32.281Z,16.57
2022-09-28T17:22:02.111Z,16.59
2022-09-28T17:24:29.247Z,16.53
2022-09-28T17:26:56.314Z,16.49
2022-09-28T17:29:23.274Z,16.49
2022-09-28T17:32:16.070Z,16.36
2022-09-28T17:34:48.311Z,16.39
2022-09-28T17:37:22.808Z,16.30
2022-09-28T17:39:49.871Z,16.25
2022-09-28T17:42:16.941Z,16.24
2022-09-28T17:44:46.745Z,16.26
2022-09-28T17:47:13.824Z,16.22
2022-09-28T17:49:41.053Z,16.13
2022-09-28T17:52:08.648Z,16.29
2022-09-28T17:54:35.940Z,16.20
2022-09-28T17:57:03.003Z,16.21
2022-09-28T17:59:29.811Z,16.25
2022-09-28T18:02:00.408Z,16.16
2022-09-28T18:04:50.603Z,16.20
2022-09-28T18:07:23.497Z,16.34
2022-09-28T18:09:53.952Z,16.23
2022-09-28T18:12:20.838Z,16.10
2022-09-28T18:14:47.691Z,16.13
2022-09-28T18:17:30.388Z,16.16
2022-09-28T18:20:16.313Z,16.22
2022-09-28T18:23:02.471Z,16.13
2022-09-28T18:25:29.565Z,16.20
2022-09-28T18:28:16.720Z,16.14
2022-09-28T18:30:45.367Z,16.24
2022-09-28T18:33:15.644Z,16.19
2022-09-28T18:35:51.302Z,16.20
2022-09-28T18:38:18.515Z,16.18
2022-09-28T18:40:47.867Z,16.17
2022-09-28T18:43:15.495Z,16.11
2022-09-28T18:45:42.393Z,16.10
2022-09-28T18:48:09.610Z,16.12
2022-09-28T18:50:36.819Z,16.10
2022-09-28T18:53:06.619Z,16.12
2022-09-28T18:55:35.467Z,16.06
2022-09-28T18:58:02.428Z,15.94
2022-09-28T19:00:29.313Z,15.97
2022-09-28T19:02:56.441Z,15.95
2022-09-28T19:05:23.401Z,16.00
2022-09-28T19:07:50.191Z,15.96
2022-09-28T19:10:17.050Z,15.94
2022-09-28T19:12:59.068Z,15.88
2022-09-28T19:15:26.209Z,15.91
2022-09-28T19:17:53.096Z,15.89
2022-09-28T19:20:20.012Z,15.92
2022-09-28T19:22:50.039Z,15.83
2022-09-28T19:25:17.133Z,15.83
2022-09-28T19:27:43.982Z,15.89
2022-09-28T19:30:37.085Z,15.92
2022-09-28T19:33:04.102Z,15.93
2022-09-28T19:35:30.944Z,15.89
2022-09-28T19:37:57.781Z,15.88
2022-09-28T19:40:27.145Z,15.74
2022-09-28T19:42:57.169Z,15.84
2022-09-28T19:45:35.250Z,15.81
2022-09-28T19:48:02.251Z,15.95
2022-09-28T19:50:29.119Z,15.93
2022-09-28T19:52:56.037Z,15.96
2022-09-28T19:55:22.800Z,15.91
2022-09-28T19:57:49.717Z,15.85
2022-09-28T20:00:16.657Z,15.81
2022-09-28T20:02:43.586Z,15.80
2022-09-28T20:05:10.371Z,15.76
2022-09-28T20:07:37.319Z,15.62
2022-09-28T20:10:04.600Z,15.79
2022-09-28T20:12:31.415Z,15.74
2022-09-28T20:14:58.177Z,15.63
2022-09-28T20:17:25.026Z,15.64
2022-09-28T20:19:51.948Z,15.64
2022-09-28T20:22:18.890Z,15.66
2022-09-28T20:24:45.902Z,15.63
2022-09-28T20:27:12.728Z,15.62
2022-09-28T20:29:39.547Z,15.49
2022-09-28T20:32:06.339Z,15.41
2022-09-28T20:34:33.105Z,15.46
2022-09-28T20:36:59.996Z,15.42
2022-09-28T20:39:26.800Z,15.33
2022-09-28T20:41:53.657Z,15.39
2022-09-28T20:44:20.699Z,15.40
2022-09-28T20:46:51.212Z,15.31
2022-09-28T20:49:18.043Z,15.29
2022-09-28T20:51:44.871Z,15.17
2022-09-28T20:54:11.720Z,15.27
2022-09-28T20:56:38.649Z,15.19
2022-09-28T20:59:08.364Z,15.24
2022-09-28T21:01:35.485Z,15.13
2022-09-28T21:04:04.435Z,15.11
2022-09-28T21:06:39.524Z,15.05
2022-09-28T21:09:12.181Z,15.01
2022-09-28T21:11:39.012Z,14.94
2022-09-28T21:14:08.701Z,14.83
2022-09-28T21:16:36.054Z,14.84
2022-09-28T21:19:04.641Z,14.87
2022-09-28T21:21:31.794Z,14.81
2022-09-28T21:23:59.005Z,14.77
2022-09-28T21:26:31.371Z,14.71
2022-09-28T21:29:07.209Z,14.82
2022-09-28T21:31:39.385Z,14.82
2022-09-28T21:34:06.733Z,14.91
2022-09-28T21:36:33.546Z,14.99
2022-09-28T21:39:00.531Z,15.03
2022-09-28T21:41:29.605Z,15.04
2022-09-28T21:43:56.512Z,15.11
2022-09-28T21:46:23.431Z,15.14
2022-09-28T21:48:53.875Z,15.17
2022-09-28T21:51:40.913Z,15.33
2022-09-28T21:54:07.958Z,15.33
2022-09-28T21:56:34.850Z,15.24
2022-09-28T21:59:01.644Z,15.21
2022-09-28T22:01:28.480Z,15.25
2022-09-28T22:03:56.529Z,15.24
2022-09-28T22:06:25.223Z,15.13
2022-09-28T22:08:52.012Z,15.13
2022-09-28T22:11:24.359Z,15.15
2022-09-28T22:13:53.713Z,15.16
2022-09-28T22:16:23.475Z,15.12
2022-09-28T22:18:50.464Z,15.21
2022-09-28T22:21:18.983Z,15.10
2022-09-28T22:23:46.072Z,15.21
2022-09-28T22:26:22.951Z,15.27
2022-09-28T22:28:58.939Z,15.34
2022-09-28T22:31:37.540Z,15.30
2022-09-28T22:34:05.455Z,15.33
2022-09-28T22:36:32.244Z,15.29
2022-09-28T22:38:59.795Z,15.38
2022-09-28T22:41:27.358Z,15.35
2022-09-28T22:43:55.020Z,15.35
2022-09-28T22:46:27.665Z,15.38
2022-09-28T22:48:56.745Z,15.37
2022-09-28T22:51:25.368Z,15.41
2022-09-28T22:53:52.577Z,15.47
2022-09-28T22:56:19.518Z,15.49
2022-09-28T22:58:46.675Z,15.57
2022-09-28T23:01:19.770Z,15.52
2022-09-28T23:03:47.460Z,15.43
2022-09-28T23:06:16.741Z,15.40
2022-09-28T23:08:45.562Z,15.45
2022-09-28T23:11:12.325Z,15.44
2022-09-28T23:13:39.486Z,15.28
2022-09-28T23:16:08.532Z,14.79
2022-09-28T23:18:37.544Z,14.53
2022-09-28T23:21:07.464Z,14.58
2022-09-28T23:23:34.505Z,14.57
2022-09-28T23:26:11.114Z,14.26
2022-09-28T23:28:38.246Z,14.36
2022-09-28T23:31:35.207Z,14.14
2022-09-28T23:34:04.465Z,14.17
2022-09-28T23:36:31.921Z,13.98
2022-09-28T23:38:59.584Z,13.92
2022-09-28T23:41:26.456Z,13.90
2022-09-28T23:43:53.276Z,13.77
2022-09-28T23:46:21.213Z,13.79
2022-09-28T23:48:49.634Z,13.77
2022-09-28T23:51:16.683Z,13.69
2022-09-28T23:53:43.565Z,13.74
2022-09-28T23:56:10.541Z,13.75
2022-09-28T23:58:37.660Z,13.68
